Aérodrome :
LOGIN :

S'inscrire | Disclaimer

   EN    FR    IT 

 










Légende :    VFR   VFR Marginal   IFR   IFR Intensif   IFR Très Intensif
Visi : 
Plafond : 
>= 8 km
>= 3000ft
5 à 8 km
1000 à 3000 ft
1500m à 5 km
500 à 1000 ft
800 à 1500m
200 à 500 ft
< 800m
< 200 ft
Symboles :   Orages  Brouillard  Fortes neiges  Fortes précipitations  Vent > 20 kt
SIGMETs :   Divers  Orages  Givrage  Turbulence  Onde Orograph.  Cendres Volcan.






- Altitude de l'aérodrome : 256 ft
- Code IATA : CFR


LFRK - Caen

DERNIER METAR :
  • 232230Z AUTO 23009KT CAVOK 11/09 Q1004

METARs EXPIRÉS :
  • 232200Z AUTO 24009KT CAVOK 11/09 Q1004
  • 232130Z AUTO 23009KT CAVOK 11/08 Q1004
  • 232100Z AUTO 25007KT CAVOK 12/09 Q1004
  • 232030Z AUTO 26012KT CAVOK 12/09 Q1004
  • 232000Z AUTO 26010KT CAVOK 13/09 Q1004 NOSIG

TAF TAF LFRK
Valide du 23 à 15h jusqu'au 24 à 00h UTC


231400Z 2315/2324 21013KT 9999 BKN025
TEMPO 2315/2319 24015G25KT 5000 SHRA BKN010 BKN015TCU
PROB40
TEMPO 2315/2318 2000 TSRA BKN010CB
Météo : +33 2 31 26 68 11



MET'MAP, la Météo Aéronautique d'un coup d'oeil ! - Copyright ORBIFLY Décembre 2007 - Disclaimer

ORBIFLY MET'MAP TEAM :

Programmation & Développement : Alexandra Zaïnal
Sur une idée originale de : Baudouin d'Aumeries
Assistance à la programmation : Marc-Olivier Méhu
Soutien technique & logistique : Manuel Goepfert

Contact : metmap@orbifly.com




SOURCES & CREDITS :

   NOAA